Flight Track Log - Related Links

Times and Time Zones

All times are in EDT time to prevent confusion due to time zone crossing. See the SWA2236 flight status page for this flight to view local times or setup timezone preferences in your user account.

Time Position Orientation Groundspeed Altitude Reporting Facility
EDT Latitude Longitude Course Direction KTS MPH feet Rate Location/Type
Wed 07:32:30 PM 30.5467 -81.6600 14° North 273 314 4,100  Level Jacksonville Center
Wed 07:33:30 PM 30.6261 -81.6711 353° North 285 328 8,500 3,641 Climbing Jacksonville Center
Wed 07:34:27 PM 30.7033 -81.6822 353° North 330 380 11,200 3,050 Climbing Jacksonville Center
Wed 07:35:30 PM 30.7953 -81.6978 352° North 382 440 14,600 2,537 Climbing Jacksonville Center
Wed 07:36:30 PM 30.8958 -81.7136 352° North 382 440 16,400 2,250 Climbing Jacksonville Center
Wed 07:37:30 PM 31.0003 -81.7147 359° North 372 428 19,100 2,650 Climbing Jacksonville Center
Wed 07:38:30 PM 31.1019 -81.6672 22° Northeast 367 422 21,700 2,500 Climbing Jacksonville Center
Wed 07:39:30 PM 31.2081 -81.6222 20° North 378 435 24,100 2,300 Climbing Jacksonville Center
Wed 07:40:30 PM 31.3119 -81.5650 25° Northeast 400 460 26,300 2,000 Climbing Jacksonville Center
Wed 07:41:30 PM 31.3583 -81.4256 69° East 381 438 28,100 1,650 Climbing Jacksonville Center
Wed 07:42:30 PM 31.3611 -81.2964 89° East 422 486 29,600 1,750 Climbing Jacksonville Center
Wed 07:43:30 PM 31.3756 -81.1333 84° East 449 517 31,600 1,850 Climbing Jacksonville Center
Wed 07:44:30 PM 31.4114 -81.0061 72° East 456 525 33,300 1,600 Climbing Jacksonville Center
Wed 07:45:30 PM 31.4739 -80.8611 63° Northeast 456 525 34,800 1,950 Climbing Jacksonville Center
Wed 07:46:30 PM 31.5556 -80.7494 49° Northeast 451 519 37,200 2,150 Climbing Jacksonville Center
Wed 07:47:30 PM 31.6547 -80.6911 27° Northeast 436 502 39,100 1,450 Climbing Jacksonville Center
Wed 07:48:30 PM 31.7703 -80.6200 28° Northeast 424 488 40,100 950 Climbing Jacksonville Center
Wed 07:49:30 PM 31.8653 -80.5589 29° Northeast 419 482 41,000 450 Climbing Jacksonville Center
Wed 07:50:30 PM 31.9767 -80.4900 28° Northeast 419 482 41,000  Level Jacksonville Center
Wed 07:51:30 PM 32.0717 -80.4311 28° Northeast 419 482 41,000  Level Jacksonville Center
Wed 07:52:30 PM 32.1747 -80.3644 29° Northeast 414 476 41,000  Level Jacksonville Center
Wed 07:53:30 PM 32.2819 -80.3000 27° Northeast 414 476 41,000  Level Jacksonville Center
Wed 07:54:30 PM 32.3892 -80.2331 28° Northeast 420 483 41,000  Level Jacksonville Center
Wed 07:55:30 PM 32.4942 -80.1661 28° Northeast 427 491 41,000  Level Jacksonville Center
Wed 07:56:30 PM 32.5992 -80.0964 29° Northeast 427 491 41,000  Level Jacksonville Center
Wed 07:57:30 PM 32.7042 -80.0314 28° Northeast 427 491 41,000  Level Jacksonville Center
Wed 07:58:30 PM 32.8111 -79.9636 28° Northeast 427 491 41,000  Level Jacksonville Center
Wed 07:59:30 PM 32.9139 -79.8961 29° Northeast 427 491 41,000  Level Jacksonville Center
Wed 08:00:30 PM 33.0208 -79.8281 28° Northeast 427 491 41,000  Level Jacksonville Center
Wed 08:01:30 PM 33.1256 -79.7600 29° Northeast 427 491 41,000  Level Jacksonville Center
Wed 08:02:30 PM 33.2303 -79.6967 27° Northeast 427 491 41,000  Level Jacksonville Center
Wed 08:03:30 PM 33.3350 -79.6283 29° Northeast 427 491 41,000  Level Jacksonville Center
Wed 08:04:30 PM 33.4397 -79.5622 28° Northeast 427 491 41,000  Level Jacksonville Center
Wed 08:05:30 PM 33.5464 -79.4908 29° Northeast 427 491 41,000  Level Jacksonville Center
Wed 08:06:30 PM 33.6553 -79.4244 27° Northeast 427 491 41,000  Level Jacksonville Center
Wed 08:07:30 PM 33.7556 -79.3581 29° Northeast 419 482 41,000  Level Jacksonville Center
Wed 08:08:30 PM 33.8661 -79.2861 28° Northeast 419 482 41,000  Level Jacksonville Center
Wed 08:09:30 PM 33.9750 -79.2189 27° Northeast 426 490 41,000  Level Jacksonville Center
Wed 08:10:30 PM 34.0856 -79.1467 28° Northeast 437 503 41,000  Level Jacksonville Center
Wed 08:11:30 PM 34.1939 -79.0742 29° Northeast 437 503 41,000  Level Jacksonville Center
Wed 08:13:01 PM 34.3603 -78.9581 30° Northeast 433 498 41,000  Level Washington Center
Wed 08:13:59 PM 34.4706 -78.8919 26° Northeast 433 498 41,000  Level Washington Center
Wed 08:15:00 PM 34.5744 -78.8331 25° Northeast 438 504 41,000  Level Washington Center
Wed 08:16:01 PM 34.6908 -78.7719 23° Northeast 443 510 41,000  Level Washington Center
Wed 08:17:01 PM 34.8069 -78.7158 22° Northeast 449 517 41,000  Level Washington Center
Wed 08:18:01 PM 34.9275 -78.6572 22° Northeast 449 517 41,000  Level Washington Center
Wed 08:18:59 PM 35.0417 -78.5981 23° Northeast 449 517 41,000  Level Washington Center
Wed 08:20:00 PM 35.1600 -78.5392 22° Northeast 449 517 41,000  Level Washington Center
Wed 08:21:00 PM 35.2847 -78.4725 24° Northeast 444 511 41,000  Level Washington Center
Wed 08:22:01 PM 35.4011 -78.4078 24° Northeast 449 517 41,000  Level Washington Center
Wed 08:22:58 PM 35.5214 -78.3481 22° Northeast 449 517 41,000  Level Washington Center
Wed 08:24:00 PM 35.6394 -78.2936 21° North 454 522 41,000  Level Washington Center
Wed 08:25:00 PM 35.7533 -78.2386 21° North 443 510 41,000 -403 Level Washington Center
Wed 08:25:59 PM 35.8672 -78.1808 22° Northeast 443 510 40,200 -1,700 Descending Washington Center
Wed 08:27:00 PM 35.9811 -78.1228 22° Northeast 437 503 37,600 -2,803 Descending Washington Center
Wed 08:28:01 PM 36.0953 -78.0597 24° Northeast 442 509 34,500 -3,227 Descending Washington Center
Wed 08:28:59 PM 36.2033 -77.9756 32° Northeast 447 514 31,200 -2,821 Descending Washington Center
Wed 08:29:58 PM 36.3233 -77.9175 21° North 452 520 29,000 -1,100 Descending Washington Center
Wed 08:30:59 PM 36.4306 -77.8714 19° North 452 520 29,000  Level Washington Center
Wed 08:32:00 PM 36.5614 -77.7978 24° Northeast 457 526 29,000 -150 Level Washington Center
Wed 08:32:59 PM 36.6794 -77.7336 24° Northeast 457 526 28,700 -500 Descending Washington Center
Wed 08:34:00 PM 36.7750 -77.6300 41° Northeast 457 526 28,000 -885 Descending Washington Center
Wed 08:35:01 PM 36.8769 -77.5289 38° Northeast 457 526 26,900 -1,041 Descending Washington Center
Wed 08:36:01 PM 36.9764 -77.4353 37° Northeast 451 519 25,900 -1,017 Descending Washington Center
Wed 08:36:59 PM 37.0978 -77.4042 12° North 427 491 24,900 -915 Descending Washington Center
Wed 08:37:59 PM 37.2214 -77.3811 North 427 491 24,100 -446 Descending Washington Center
Wed 08:39:00 PM 37.3406 -77.3550 10° North 433 498 24,000 -492 Descending Washington Center
Wed 08:40:01 PM 37.4619 -77.3317 North 433 498 23,100 -496 Descending Washington Center
Wed 08:41:01 PM 37.5811 -77.3056 10° North 428 493 23,000 -51 Descending Washington Center
Wed 08:41:59 PM 37.6983 -77.2819 North 428 493 23,000  Level Washington Center
Wed 08:43:00 PM 37.8156 -77.2558 10° North 428 493 23,000  Level Washington Center
Wed 08:44:01 PM 37.9325 -77.2319 North 428 493 23,000 -50 Level Washington Center
Wed 08:44:59 PM 38.0519 -77.2081 North 428 493 22,900 -1,373 Descending Washington Center
Wed 08:45:59 PM 38.1669 -77.1842 North 428 493 20,300 -2,557 Descending Washington Center
Wed 08:47:01 PM 38.2797 -77.1603 North 422 486 17,700 -2,607 Descending Washington Center
Wed 08:48:01 PM 38.3844 -77.1281 14° North 401 461 15,000 -2,000 Descending Washington Center
Wed 08:49:01 PM 38.4628 -77.0394 42° Northeast 365 420 13,700 -1,513 Descending Washington Center
Wed 08:50:00 PM 38.5367 -76.9533 42° Northeast 365 420 12,000 -1,513 Descending Washington Center
Wed 08:51:00 PM 38.6042 -76.8694 44° Northeast 352 405 10,700 -1,008 Descending Washington Center
Wed 08:51:59 PM 38.6678 -76.7908 44° Northeast 331 381 10,000 -850 Descending Washington Center
Wed 08:53:00 PM 38.7183 -76.7172 49° Northeast 298 343 9,000 -1,041 Descending Washington Center
Wed 08:54:00 PM 38.7544 -76.6353 61° Northeast 270 311 7,900 -1,273 Descending Washington Center
Wed 08:54:39 PM 38.7833 -76.5833 54° Northeast 278 320 6,900 -1,600 Descending Potomac TRACON
Wed 08:55:45 PM 38.8500 -76.5167 38° Northeast 283 326 5,100 -1,381 Descending Potomac TRACON
Wed 08:56:45 PM 38.9167 -76.5167 360° North 270 311 4,000 -1,000 Descending Potomac TRACON
Wed 08:57:45 PM 39.0000 -76.5000 North 263 303 3,100 -650 Descending Potomac TRACON
Wed 08:58:45 PM 39.0500 -76.5667 314° West 254 292 2,700 -767 Descending Potomac TRACON
Wed 09:00:00 PM 39.1667 -76.6667 339° North  Level FlightAware Approximate
Wed 09:00:45 PM 39.1333 -76.6333 339° North 160 184 800  Level Potomac TRACON
Wed 09:02:00 PM 39.1667 -76.6667 339° North  Level FlightAware Approximate
Wed 09:09:00 PM 39.1754 -76.6683 339° North  Level Estimated
Wed 09:10:00 PM 39.1754 -76.6683 339° North  Level Estimated
Wed 09:11:00 PM 39.1754 -76.6683 339° North  Level Estimated
Wed 09:12:00 PM 39.1754 -76.6683 339° North  Level Estimated

Login

Don't have an account? Register now (free) for customized features, flight alerts, and more!